createdAt,value
2019-04-06T00:01:01.383Z,3.90
2019-04-06T00:03:30.757Z,5.50
2019-04-06T00:06:00.106Z,3.77
2019-04-06T00:08:29.468Z,3.33
2019-04-06T00:10:58.803Z,3.80
2019-04-06T00:13:28.159Z,4.17
2019-04-06T00:15:57.541Z,6.43
2019-04-06T00:18:26.870Z,2.97
2019-04-06T00:20:56.259Z,5.43
2019-04-06T00:23:25.585Z,5.83
2019-04-06T00:25:54.947Z,5.77
2019-04-06T00:28:26.219Z,4.67
2019-04-06T00:31:09.052Z,6.30
2019-04-06T00:33:38.411Z,4.57
2019-04-06T00:36:14.069Z,4.47
2019-04-06T00:38:43.464Z,5.57
2019-04-06T00:41:12.855Z,3.73
2019-04-06T00:43:42.198Z,5.47
2019-04-06T00:46:11.566Z,4.43
2019-04-06T00:48:40.924Z,3.80
2019-04-06T00:51:10.313Z,3.70
2019-04-06T00:53:39.687Z,6.53
2019-04-06T00:56:09.023Z,4.53
2019-04-06T00:58:38.395Z,5.90
2019-04-06T01:01:07.774Z,4.87
2019-04-06T01:03:37.122Z,4.03
2019-04-06T01:06:06.801Z,4.43
2019-04-06T01:08:36.275Z,5.67
2019-04-06T01:11:05.799Z,4.20
2019-04-06T01:13:35.164Z,5.30
2019-04-06T01:16:04.529Z,6.73
2019-04-06T01:18:33.903Z,4.40
2019-04-06T01:21:04.642Z,5.07
2019-04-06T01:23:34.009Z,4.30
2019-04-06T01:26:07.458Z,5.93
2019-04-06T01:28:34.441Z,4.20
2019-04-06T01:31:03.810Z,5.17
2019-04-06T01:33:33.183Z,6.77
2019-04-06T01:36:02.559Z,6.50
2019-04-06T01:38:31.905Z,5.70
2019-04-06T01:41:02.794Z,7.57
2019-04-06T01:43:32.184Z,6.90
2019-04-06T01:46:01.582Z,7.10
2019-04-06T01:48:30.889Z,6.20
2019-04-06T01:51:00.382Z,7.07
2019-04-06T01:53:29.774Z,6.50
2019-04-06T01:55:59.102Z,5.13
2019-04-06T01:58:28.483Z,6.87
2019-04-06T02:01:06.302Z,5.13
2019-04-06T02:03:35.727Z,5.10
2019-04-06T02:06:05.040Z,6.60
2019-04-06T02:08:34.413Z,4.37
2019-04-06T02:11:03.964Z,5.80
2019-04-06T02:13:33.296Z,9.43
2019-04-06T02:16:02.662Z,4.13
2019-04-06T02:18:32.059Z,7.40
2019-04-06T02:21:01.429Z,6.87
2019-04-06T02:23:30.773Z,8.33
2019-04-06T02:26:00.133Z,8.57
2019-04-06T02:28:29.473Z,5.03
2019-04-06T02:31:23.159Z,7.43
2019-04-06T02:34:29.843Z,5.93
2019-04-06T02:37:23.963Z,7.73
2019-04-06T02:40:02.149Z,10.13
2019-04-06T02:42:36.913Z,10.63
2019-04-06T02:45:06.818Z,7.83
2019-04-06T02:47:42.445Z,6.93
2019-04-06T02:50:12.184Z,8.57
2019-04-06T02:52:41.499Z,6.67
2019-04-06T02:55:11.741Z,8.73
2019-04-06T02:57:41.130Z,9.10
2019-04-06T03:00:10.485Z,10.63
2019-04-06T03:02:39.814Z,8.30
2019-04-06T03:05:09.458Z,9.03
2019-04-06T03:07:38.819Z,9.13
2019-04-06T03:10:08.667Z,8.63
2019-04-06T03:12:38.204Z,10.17
2019-04-06T03:15:08.093Z,10.00
2019-04-06T03:17:37.367Z,12.00
2019-04-06T03:20:06.943Z,10.03
2019-04-06T03:22:36.222Z,12.40
2019-04-06T03:25:05.697Z,13.43
2019-04-06T03:27:35.027Z,12.13
2019-04-06T03:30:05.136Z,11.20
2019-04-06T03:32:34.739Z,11.60
2019-04-06T03:35:05.693Z,12.03
2019-04-06T03:37:37.331Z,9.50
2019-04-06T03:40:07.991Z,11.20
2019-04-06T03:42:37.337Z,13.23
2019-04-06T03:45:07.412Z,12.70
2019-04-06T03:47:36.715Z,16.27
2019-04-06T03:50:07.079Z,10.33
2019-04-06T03:52:36.400Z,14.23
2019-04-06T03:55:07.361Z,9.43
2019-04-06T03:57:36.682Z,12.87
2019-04-06T04:00:07.480Z,11.57
2019-04-06T04:02:36.790Z,13.30
2019-04-06T04:05:06.796Z,14.40
2019-04-06T04:07:36.138Z,12.87
2019-04-06T04:10:06.827Z,10.47
2019-04-06T04:12:36.210Z,15.63
2019-04-06T04:15:06.273Z,11.70
2019-04-06T04:17:35.649Z,13.93
2019-04-06T04:20:06.651Z,13.60
2019-04-06T04:22:35.997Z,13.77
2019-04-06T04:25:05.325Z,11.83
2019-04-06T04:27:34.661Z,12.90
2019-04-06T04:30:04.659Z,11.07
2019-04-06T04:32:33.979Z,11.33
2019-04-06T04:35:03.343Z,13.70
2019-04-06T04:37:32.690Z,13.77
2019-04-06T04:40:02.332Z,17.37
2019-04-06T04:42:31.662Z,14.53
2019-04-06T04:45:01.242Z,13.73
2019-04-06T04:47:30.666Z,13.70
2019-04-06T04:49:59.989Z,15.20
2019-04-06T04:52:29.339Z,14.30
2019-04-06T04:54:58.717Z,14.37
2019-04-06T04:57:39.295Z,14.63
2019-04-06T04:59:59.155Z,15.17
2019-04-06T05:02:28.483Z,15.63
2019-04-06T05:04:57.818Z,16.33
2019-04-06T05:07:27.183Z,20.50
2019-04-06T05:09:56.548Z,19.27
2019-04-06T05:12:26.055Z,16.90
2019-04-06T05:14:59.411Z,20.17
2019-04-06T05:17:28.879Z,17.50
2019-04-06T05:19:58.506Z,17.07
2019-04-06T05:22:28.003Z,18.87
2019-04-06T05:24:57.341Z,21.97
2019-04-06T05:27:26.893Z,24.70
2019-04-06T05:29:56.440Z,22.70
2019-04-06T05:32:25.924Z,20.60
2019-04-06T05:34:57.902Z,24.50
2019-04-06T05:37:26.352Z,26.87
2019-04-06T05:39:55.739Z,24.23
2019-04-06T05:42:25.058Z,25.13
2019-04-06T05:44:54.418Z,26.00
2019-04-06T05:47:23.915Z,26.20
2019-04-06T05:49:53.272Z,28.63
2019-04-06T05:52:22.669Z,31.43
2019-04-06T05:54:51.983Z,28.90
2019-04-06T05:57:21.457Z,31.50
2019-04-06T05:59:50.808Z,31.83
2019-04-06T06:02:20.129Z,32.07
2019-04-06T06:04:49.475Z,37.50
2019-04-06T06:07:18.801Z,40.67
2019-04-06T06:09:48.246Z,42.00
2019-04-06T06:12:17.559Z,37.23
2019-04-06T06:14:46.906Z,39.30
2019-04-06T06:17:16.268Z,42.67
2019-04-06T06:19:45.620Z,39.90
2019-04-06T06:22:14.968Z,45.33
2019-04-06T06:24:44.328Z,44.13
2019-04-06T06:27:13.693Z,43.13
2019-04-06T06:29:43.052Z,46.00
2019-04-06T06:32:12.513Z,45.27
2019-04-06T06:34:41.963Z,48.20
2019-04-06T06:37:11.365Z,45.90
2019-04-06T06:39:40.768Z,43.27
2019-04-06T06:42:10.096Z,49.07
2019-04-06T06:44:39.470Z,48.27
2019-04-06T06:47:08.867Z,47.90
2019-04-06T06:49:38.235Z,46.77
2019-04-06T06:52:07.614Z,47.50
2019-04-06T06:54:37.012Z,50.07
2019-04-06T06:57:06.561Z,52.67
2019-04-06T06:59:35.935Z,47.97
2019-04-06T07:02:05.270Z,47.17
2019-04-06T07:04:34.683Z,52.60
2019-04-06T07:07:04.127Z,50.10
2019-04-06T07:09:33.479Z,47.20
2019-04-06T07:12:03.085Z,47.53
2019-04-06T07:14:32.442Z,49.83
2019-04-06T07:17:02.029Z,47.60
2019-04-06T07:19:31.598Z,48.57
2019-04-06T07:22:05.610Z,47.27
2019-04-06T07:24:34.959Z,44.70
2019-04-06T07:27:08.062Z,53.40
2019-04-06T07:29:41.450Z,52.00
2019-04-06T07:32:10.879Z,51.13
2019-04-06T07:34:40.477Z,49.83
2019-04-06T07:37:09.863Z,46.37
2019-04-06T07:39:39.359Z,44.97
2019-04-06T07:42:08.781Z,48.63
2019-04-06T07:44:38.115Z,47.80
2019-04-06T07:47:07.515Z,46.50
2019-04-06T07:49:36.904Z,43.23
2019-04-06T07:52:06.302Z,41.30
2019-04-06T07:54:35.831Z,44.70
2019-04-06T07:57:05.300Z,41.30
2019-04-06T07:59:35.010Z,44.30
2019-04-06T08:02:04.374Z,43.10
2019-04-06T08:04:33.703Z,41.03
2019-04-06T08:07:03.043Z,39.73
2019-04-06T08:09:32.445Z,40.50
2019-04-06T08:12:01.850Z,40.47
2019-04-06T08:14:33.699Z,39.30
2019-04-06T08:17:03.039Z,44.67
2019-04-06T08:19:32.422Z,41.47
2019-04-06T08:22:01.812Z,39.17
2019-04-06T08:24:32.203Z,41.93
2019-04-06T08:27:01.598Z,39.97
2019-04-06T08:29:31.161Z,43.63
2019-04-06T08:32:00.443Z,44.73
2019-04-06T08:34:29.810Z,44.50
2019-04-06T08:36:59.148Z,43.43
2019-04-06T08:39:28.518Z,46.03
2019-04-06T08:41:57.889Z,42.63
2019-04-06T08:44:27.258Z,43.67
2019-04-06T08:46:56.870Z,41.13
2019-04-06T08:49:26.306Z,43.47
2019-04-06T08:51:55.647Z,40.27
2019-04-06T08:54:25.123Z,40.70
2019-04-06T08:56:56.836Z,39.23
2019-04-06T08:59:26.223Z,39.60
2019-04-06T09:01:55.618Z,39.57
2019-04-06T09:04:27.282Z,44.30
2019-04-06T09:06:56.641Z,41.43
2019-04-06T09:09:26.009Z,37.97
2019-04-06T09:11:55.337Z,41.10
2019-04-06T09:14:24.701Z,39.77
2019-04-06T09:16:54.327Z,37.10
2019-04-06T09:19:23.838Z,35.80
2019-04-06T09:21:53.218Z,37.90
2019-04-06T09:24:22.597Z,39.93
2019-04-06T09:26:51.977Z,34.37
2019-04-06T09:29:23.560Z,41.10
2019-04-06T09:31:52.410Z,41.57
2019-04-06T09:34:22.022Z,37.33
2019-04-06T09:36:51.648Z,38.97
2019-04-06T09:39:20.972Z,41.20
2019-04-06T09:41:50.483Z,39.73
2019-04-06T09:44:41.075Z,38.80
2019-04-06T09:47:19.368Z,36.57
2019-04-06T09:50:10.425Z,39.87
2019-04-06T09:52:52.250Z,38.03
2019-04-06T09:55:28.558Z,37.40
2019-04-06T09:58:22.764Z,38.37
2019-04-06T10:01:11.035Z,35.40
2019-04-06T10:03:56.394Z,40.83
2019-04-06T10:06:59.683Z,39.63
2019-04-06T10:09:48.564Z,42.97
2019-04-06T10:12:35.692Z,38.47
2019-04-06T10:15:27.341Z,41.37
2019-04-06T10:18:21.672Z,42.50
2019-04-06T10:20:58.925Z,40.53
2019-04-06T10:23:53.478Z,42.17
2019-04-06T10:26:49.535Z,41.03
2019-04-06T10:29:34.137Z,43.10
2019-04-06T10:32:23.729Z,38.77
2019-04-06T10:35:10.729Z,37.67
2019-04-06T10:37:55.346Z,36.90
2019-04-06T10:40:41.015Z,40.03
2019-04-06T10:43:44.635Z,39.63
2019-04-06T10:46:35.430Z,41.13
2019-04-06T10:49:11.526Z,40.50
2019-04-06T10:52:01.843Z,40.10
2019-04-06T10:54:50.179Z,37.87
2019-04-06T10:57:50.865Z,43.53
2019-04-06T11:00:37.750Z,39.57
2019-04-06T11:03:24.952Z,41.93
2019-04-06T11:06:19.415Z,43.47
2019-04-06T11:09:02.181Z,44.40
2019-04-06T11:11:49.292Z,49.90
2019-04-06T11:14:37.642Z,47.80
2019-04-06T11:17:38.193Z,52.30
2019-04-06T11:20:35.725Z,53.07
2019-04-06T11:23:19.423Z,56.93
2019-04-06T11:26:07.736Z,60.17
2019-04-06T11:28:55.108Z,56.23
2019-04-06T11:31:55.688Z,54.53
2019-04-06T11:34:53.027Z,54.10
2019-04-06T11:37:44.438Z,55.60
2019-04-06T11:40:28.240Z,54.60
2019-04-06T11:43:28.602Z,52.13
2019-04-06T11:46:20.062Z,55.50
2019-04-06T11:49:05.789Z,54.07
2019-04-06T11:51:49.510Z,53.33
2019-04-06T11:54:36.857Z,50.87
2019-04-06T11:57:15.377Z,53.87
2019-04-06T12:00:03.683Z,53.60
2019-04-06T12:02:42.005Z,47.70
2019-04-06T12:05:30.419Z,48.70
2019-04-06T12:08:17.293Z,48.40
2019-04-06T12:11:04.315Z,46.90
2019-04-06T12:13:40.160Z,46.40
2019-04-06T12:16:19.037Z,49.00
2019-04-06T12:19:05.750Z,46.10
2019-04-06T12:21:47.874Z,43.10
2019-04-06T12:24:45.563Z,42.60
2019-04-06T12:27:32.533Z,45.07
2019-04-06T12:30:37.770Z,40.20
2019-04-06T12:33:18.628Z,40.77
2019-04-06T12:36:00.746Z,36.97
2019-04-06T12:38:51.812Z,36.30
2019-04-06T12:41:38.759Z,37.90
2019-04-06T12:44:27.037Z,36.33
2019-04-06T12:47:06.578Z,35.67
2019-04-06T12:50:13.270Z,35.60
2019-04-06T12:52:49.235Z,36.27
2019-04-06T12:55:36.017Z,34.20
2019-04-06T12:58:22.961Z,33.17
2019-04-06T13:01:17.119Z,34.30
2019-04-06T13:04:20.394Z,34.97
2019-04-06T13:07:17.311Z,34.57
2019-04-06T13:09:55.575Z,38.30
2019-04-06T13:12:42.606Z,37.90
2019-04-06T13:15:29.569Z,39.43
2019-04-06T13:18:23.252Z,36.80
2019-04-06T13:21:14.742Z,42.07
2019-04-06T13:24:18.001Z,35.63
2019-04-06T13:27:15.427Z,33.50
2019-04-06T13:30:02.164Z,32.93
2019-04-06T13:32:59.595Z,33.23
2019-04-06T13:35:54.549Z,31.50
2019-04-06T13:38:47.136Z,28.67
2019-04-06T13:41:38.258Z,32.60
2019-04-06T13:44:28.409Z,30.10
2019-04-06T13:47:15.186Z,28.53
2019-04-06T13:50:12.619Z,28.17
2019-04-06T13:53:01.649Z,27.80
2019-04-06T13:56:08.661Z,29.20
2019-04-06T13:59:03.112Z,27.37
2019-04-06T14:01:54.260Z,25.40
2019-04-06T14:04:34.586Z,28.10
2019-04-06T14:10:32.661Z,29.93
2019-04-06T14:13:26.957Z,33.17
2019-04-06T14:16:20.037Z,28.47
2019-04-06T14:22:21.715Z,29.43
2019-04-06T14:25:12.713Z,29.97
2019-04-06T14:28:09.747Z,29.07
2019-04-06T14:31:10.339Z,27.53
2019-04-06T14:34:10.924Z,28.13
2019-04-06T14:37:05.300Z,27.73
2019-04-06T14:40:02.383Z,22.13
2019-04-06T14:43:05.698Z,21.03
2019-04-06T14:45:53.276Z,20.67
2019-04-06T14:48:33.468Z,20.77
2019-04-06T14:51:09.731Z,22.03
2019-04-06T14:53:52.785Z,20.93
2019-04-06T14:56:38.355Z,20.00
2019-04-06T14:59:26.798Z,19.90
2019-04-06T15:02:15.116Z,20.00
2019-04-06T15:05:02.371Z,20.93
2019-04-06T15:08:05.741Z,22.93
2019-04-06T15:10:57.530Z,20.80
2019-04-06T15:13:42.527Z,20.43
2019-04-06T15:16:18.032Z,23.07
2019-04-06T15:19:03.986Z,24.27
2019-04-06T15:22:01.337Z,21.33
2019-04-06T15:24:52.807Z,19.90
2019-04-06T15:27:56.361Z,18.00
2019-04-06T15:30:41.844Z,16.77
2019-04-06T15:33:28.824Z,17.17
2019-04-06T15:36:26.431Z,17.60
2019-04-06T15:39:08.111Z,15.97
2019-04-06T15:41:55.362Z,19.13
2019-04-06T15:44:39.106Z,16.17
2019-04-06T15:47:27.507Z,13.83
2019-04-06T15:50:26.857Z,15.63
2019-04-06T15:53:07.264Z,13.90
2019-04-06T15:55:45.356Z,12.37
2019-04-06T15:58:42.790Z,11.03
2019-04-06T16:01:33.030Z,13.50
2019-04-06T16:04:20.109Z,10.03
2019-04-06T16:07:29.818Z,11.63
2019-04-06T16:10:07.932Z,11.83
2019-04-06T16:12:54.979Z,11.23
2019-04-06T16:15:45.993Z,9.60
2019-04-06T16:18:40.356Z,8.47
2019-04-06T16:21:25.508Z,7.37
2019-04-06T16:24:13.775Z,7.53
2019-04-06T16:26:51.735Z,7.23
2019-04-06T16:33:17.283Z,6.67
2019-04-06T16:36:14.813Z,7.27
2019-04-06T16:38:53.911Z,9.23
2019-04-06T16:41:51.305Z,7.37
2019-04-06T16:44:31.473Z,7.17
2019-04-06T16:47:34.750Z,5.93
2019-04-06T16:50:23.740Z,8.43
2019-04-06T16:53:18.052Z,6.23
2019-04-06T16:56:06.870Z,7.00
2019-04-06T16:58:57.981Z,5.77
2019-04-06T17:01:42.539Z,9.50
2019-04-06T17:04:40.592Z,5.50
2019-04-06T17:07:19.364Z,5.10
2019-04-06T17:10:02.113Z,5.57
2019-04-06T17:12:59.359Z,5.00
2019-04-06T17:15:48.035Z,4.87
2019-04-06T17:18:46.256Z,6.97
2019-04-06T17:21:27.454Z,5.63
2019-04-06T17:24:27.645Z,4.73
2019-04-06T17:27:10.682Z,4.57
2019-04-06T17:29:55.454Z,4.63
2019-04-06T17:32:44.056Z,4.53
2019-04-06T17:35:41.774Z,4.50
2019-04-06T17:38:20.417Z,5.73
2019-04-06T17:40:58.659Z,3.87
2019-04-06T17:43:47.572Z,5.77
2019-04-06T17:46:32.750Z,4.87
2019-04-06T17:49:36.156Z,3.97
2019-04-06T17:52:37.053Z,9.43
2019-04-06T17:55:41.397Z,4.33
2019-04-06T17:58:23.356Z,3.90
2019-04-06T18:00:59.688Z,4.20
2019-04-06T18:03:50.125Z,4.27
2019-04-06T18:06:35.966Z,5.30
2019-04-06T18:09:32.817Z,7.77
2019-04-06T18:12:17.393Z,6.67
2019-04-06T18:14:47.186Z,6.93
2019-04-06T18:17:16.589Z,9.63
2019-04-06T18:19:46.468Z,5.37
2019-04-06T18:22:19.354Z,8.30
2019-04-06T18:24:48.966Z,12.57
2019-04-06T18:27:18.395Z,10.43
2019-04-06T18:29:47.736Z,7.00
2019-04-06T18:32:29.521Z,11.63
2019-04-06T18:34:59.336Z,7.57
2019-04-06T18:37:42.726Z,8.87
2019-04-06T18:40:23.687Z,7.57
2019-04-06T18:43:00.250Z,9.90
2019-04-06T18:45:33.658Z,6.57
2019-04-06T18:48:03.810Z,9.93
2019-04-06T18:50:38.019Z,6.37
2019-04-06T18:53:04.639Z,5.40
2019-04-06T18:55:33.984Z,6.07
2019-04-06T18:58:10.531Z,7.47
2019-04-06T19:00:34.598Z,5.90
2019-04-06T19:03:12.760Z,8.93
2019-04-06T19:05:35.230Z,6.93
2019-04-06T19:11:36.345Z,6.00
2019-04-06T19:14:05.818Z,6.43
2019-04-06T19:16:35.487Z,9.97
2019-04-06T19:19:04.843Z,8.63
2019-04-06T19:21:34.339Z,7.77
2019-04-06T19:24:03.724Z,6.23
2019-04-06T19:26:33.856Z,6.23
2019-04-06T19:29:03.443Z,5.73
2019-04-06T19:31:32.765Z,6.50
2019-04-06T19:34:02.308Z,6.37
2019-04-06T19:36:31.661Z,6.30
2019-04-06T19:39:01.007Z,7.10
2019-04-06T19:41:30.544Z,5.30
2019-04-06T19:44:00.041Z,7.10
2019-04-06T19:46:29.495Z,6.27
2019-04-06T19:48:58.750Z,5.47
2019-04-06T19:51:28.380Z,7.17
2019-04-06T19:53:57.776Z,7.13
2019-04-06T19:56:27.644Z,4.83
2019-04-06T19:58:56.971Z,5.80
2019-04-06T20:01:26.291Z,5.50
2019-04-06T20:03:55.592Z,7.93
2019-04-06T20:06:27.188Z,5.67
2019-04-06T20:08:56.534Z,5.50
2019-04-06T20:11:25.907Z,6.67
2019-04-06T20:13:56.216Z,4.33
2019-04-06T20:16:25.643Z,4.70
2019-04-06T20:18:55.453Z,4.90
2019-04-06T20:21:25.337Z,5.50
2019-04-06T20:23:54.991Z,5.43
2019-04-06T20:26:24.362Z,5.20
2019-04-06T20:28:53.650Z,6.23
2019-04-06T20:31:22.963Z,6.47
2019-04-06T20:33:53.295Z,5.50
2019-04-06T20:36:22.812Z,5.73
2019-04-06T20:38:52.558Z,5.93
2019-04-06T20:41:21.934Z,6.40
2019-04-06T20:43:51.854Z,5.13
2019-04-06T20:46:21.288Z,5.73
2019-04-06T20:48:51.089Z,5.37
2019-04-06T20:51:20.505Z,5.27
2019-04-06T20:53:49.821Z,5.77
2019-04-06T20:56:19.644Z,6.20
2019-04-06T20:58:49.145Z,4.83
2019-04-06T21:01:18.602Z,6.47
2019-04-06T21:03:59.208Z,5.83
2019-04-06T21:06:19.177Z,5.80
2019-04-06T21:08:49.081Z,5.80
2019-04-06T21:11:18.405Z,5.33
2019-04-06T21:13:48.124Z,6.30
2019-04-06T21:16:17.904Z,6.07
2019-04-06T21:18:47.250Z,6.03
2019-04-06T21:21:16.633Z,4.83
2019-04-06T21:23:46.298Z,9.87
2019-04-06T21:26:16.203Z,6.47
2019-04-06T21:28:45.605Z,6.07
2019-04-06T21:31:15.145Z,5.70
2019-04-06T21:33:45.863Z,6.73
2019-04-06T21:36:15.503Z,7.30
2019-04-06T21:38:44.802Z,7.13
2019-04-06T21:41:14.145Z,7.83
2019-04-06T21:43:43.468Z,6.10
2019-04-06T21:46:13.149Z,5.90
2019-04-06T21:48:42.514Z,6.17
2019-04-06T21:51:12.404Z,6.00
2019-04-06T21:53:42.401Z,7.33
2019-04-06T21:56:12.320Z,6.47
2019-04-06T21:58:41.641Z,6.40
2019-04-06T22:01:13.585Z,7.63
2019-04-06T22:03:42.995Z,7.27
2019-04-06T22:06:12.696Z,7.30
2019-04-06T22:08:42.031Z,9.00
2019-04-06T22:11:11.937Z,6.10
2019-04-06T22:13:41.793Z,5.77
2019-04-06T22:16:11.515Z,7.27
2019-04-06T22:18:40.778Z,6.13
2019-04-06T22:21:10.104Z,6.07
2019-04-06T22:23:43.323Z,7.80
2019-04-06T22:26:11.006Z,7.97
2019-04-06T22:28:40.328Z,6.30
2019-04-06T22:31:09.953Z,9.20
2019-04-06T22:33:39.900Z,10.20
2019-04-06T22:36:09.275Z,9.43
2019-04-06T22:38:38.748Z,7.50
2019-04-06T22:41:07.985Z,8.67
2019-04-06T22:43:37.310Z,9.13
2019-04-06T22:46:06.970Z,8.47
2019-04-06T22:48:36.382Z,9.93
2019-04-06T22:51:05.756Z,7.93
2019-04-06T22:53:35.085Z,7.80
2019-04-06T22:56:04.527Z,8.70
2019-04-06T22:58:33.852Z,10.37
2019-04-06T23:01:08.012Z,11.97
2019-04-06T23:03:54.779Z,10.63
2019-04-06T23:06:49.741Z,8.67
2019-04-06T23:09:19.071Z,10.50
2019-04-06T23:11:48.420Z,11.60
2019-04-06T23:14:17.890Z,10.30
2019-04-06T23:16:47.674Z,9.50
2019-04-06T23:19:17.525Z,11.23
2019-04-06T23:21:46.874Z,10.13
2019-04-06T23:24:16.198Z,8.63
2019-04-06T23:26:45.562Z,10.97
2019-04-06T23:29:15.516Z,12.33
2019-04-06T23:31:45.213Z,11.27
2019-04-06T23:34:14.527Z,11.27
2019-04-06T23:36:44.165Z,11.43
2019-04-06T23:39:13.992Z,13.20
2019-04-06T23:41:43.755Z,12.33
2019-04-06T23:44:13.395Z,10.03
2019-04-06T23:46:42.796Z,11.43
2019-04-06T23:49:13.303Z,9.67
2019-04-06T23:51:42.709Z,12.77
2019-04-06T23:54:12.001Z,10.90
2019-04-06T23:56:41.678Z,10.87
2019-04-06T23:59:11.013Z,11.00
